Time;durP1;ratioP1;P1;durP2;ratioP2;P2;SDS_P1;SDS_P2;PMS_P1;PMS_P2;Temp;Humidity;BMP_temperature;BMP_pressure;BME280_temperature;BME280_humidity;BME280_pressure;Samples;Min_cycle;Max_cycle;Signal;HPM_P1;HPM_P2
2023/07/13 00:01:48;;;;;;;2.05;0.57;;;;;;;24.98;35.59;101243.59;5054257;28;20033;-61
2023/07/13 00:04:13;;;;;;;4.22;1.00;;;;;;;24.94;35.85;101244.22;5055658;28;20029;-61
2023/07/13 00:06:39;;;;;;;6.07;1.50;;;;;;;24.92;35.99;101238.94;5054265;28;20033;-61
2023/07/13 00:09:04;;;;;;;8.25;1.02;;;;;;;24.91;36.21;101245.47;5054138;28;20166;-61
2023/07/13 00:11:29;;;;;;;4.05;0.82;;;;;;;24.89;35.93;101245.72;5054006;28;20037;-61
2023/07/13 00:13:55;;;;;;;4.43;1.08;;;;;;;24.88;35.87;101237.69;5055254;28;20036;-61
2023/07/13 00:16:21;;;;;;;2.58;0.80;;;;;;;24.88;36.39;101240.41;5054153;28;20048;-61
2023/07/13 00:18:46;;;;;;;3.03;0.73;;;;;;;24.83;35.74;101241.06;5055186;28;20040;-60
2023/07/13 00:21:12;;;;;;;3.85;0.47;;;;;;;24.83;36.34;101243.81;5053643;28;20040;-62
2023/07/13 00:23:39;;;;;;;4.30;0.70;;;;;;;24.82;36.07;101249.47;5053630;28;20039;-62
2023/07/13 00:26:07;;;;;;;1.90;0.40;;;;;;;24.81;36.58;101253.31;5037159;28;20040;-61
2023/07/13 00:28:33;;;;;;;3.78;0.93;;;;;;;24.77;35.75;101241.03;5053999;28;20060;-61
2023/07/13 00:30:58;;;;;;;2.90;0.77;;;;;;;24.74;36.24;101239.56;5053807;28;20090;-61
2023/07/13 00:33:24;;;;;;;3.53;0.80;;;;;;;24.71;36.42;101236.38;5054554;28;20041;-61
2023/07/13 00:35:49;;;;;;;2.80;0.80;;;;;;;24.70;36.16;101246.53;5053688;28;20029;-61
2023/07/13 00:38:15;;;;;;;3.53;0.57;;;;;;;24.70;36.70;101251.16;5053644;28;20033;-61
2023/07/13 00:40:41;;;;;;;4.00;0.73;;;;;;;24.70;36.68;101253.91;5053548;28;20037;-61
2023/07/13 00:43:15;;;;;;;2.85;0.60;;;;;;;24.69;36.28;101255.78;5053558;28;20040;-61
2023/07/13 00:45:43;;;;;;;4.50;0.75;;;;;;;24.69;36.46;101247.56;5036904;28;20029;-61
2023/07/13 00:48:11;;;;;;;5.43;0.80;;;;;;;24.68;36.57;101248.63;5054578;28;20025;-61
2023/07/13 00:50:37;;;;;;;1.67;0.45;;;;;;;24.67;36.60;101240.63;5054688;28;20516;-61
2023/07/13 00:53:03;;;;;;;2.33;0.60;;;;;;;24.65;36.40;101243.56;5027379;28;20048;-61
2023/07/13 00:55:28;;;;;;;3.72;0.60;;;;;;;24.64;36.57;101247.38;5047107;28;20032;-61
2023/07/13 00:57:54;;;;;;;4.32;0.77;;;;;;;24.63;36.87;101244.81;5054553;28;20502;-61
2023/07/13 01:00:20;;;;;;;4.10;0.90;;;;;;;24.59;36.57;101252.66;5053171;28;20040;-61
2023/07/13 01:02:47;;;;;;;4.07;1.23;;;;;;;24.59;37.32;101249.91;5053217;28;20032;-61
2023/07/13 01:05:14;;;;;;;8.00;0.88;;;;;;;24.61;37.14;101253.28;5053113;28;20090;-60
2023/07/13 01:07:40;;;;;;;3.63;1.48;;;;;;;24.61;36.64;101257.91;5053195;28;20121;-61
2023/07/13 01:10:06;;;;;;;5.97;1.73;;;;;;;24.58;36.47;101250.94;5052985;28;20041;-61
2023/07/13 01:12:31;;;;;;;4.72;1.88;;;;;;;24.60;37.06;101251.56;5036339;28;20033;-61
2023/07/13 01:15:01;;;;;;;7.43;1.00;;;;;;;24.55;37.57;101237.66;5035314;28;20095;-60
2023/07/13 01:17:28;;;;;;;5.03;0.85;;;;;;;24.53;37.33;101244.41;5036442;28;20452;-61
2023/07/13 01:19:53;;;;;;;1.90;0.68;;;;;;;24.50;37.41;101250.31;5054032;28;20120;-61
2023/07/13 01:22:19;;;;;;;5.97;0.70;;;;;;;24.48;37.43;101258.75;5052748;28;20056;-60
2023/07/13 01:24:47;;;;;;;3.00;0.65;;;;;;;24.46;37.70;101254.50;5052836;28;20064;-61
2023/07/13 01:27:16;;;;;;;4.47;0.70;;;;;;;24.43;37.51;101250.28;5052830;28;20033;-61
2023/07/13 01:29:46;;;;;;;1.40;0.65;;;;;;;24.41;37.74;101252.41;5053906;28;20036;-62
2023/07/13 01:32:21;;;;;;;1.98;0.57;;;;;;;24.41;37.27;101249.66;5036463;28;20412;-61
2023/07/13 01:34:47;;;;;;;1.38;0.50;;;;;;;24.39;37.73;101246.31;5053973;28;20060;-61
2023/07/13 01:37:12;;;;;;;3.53;0.55;;;;;;;24.40;37.83;101249.88;5053823;28;20087;-62
2023/07/13 01:39:38;;;;;;;2.28;0.77;;;;;;;24.39;37.74;101254.53;5052365;28;20452;-61
2023/07/13 01:42:03;;;;;;;3.28;0.60;;;;;;;24.37;37.85;101251.16;5052398;28;20053;-61
2023/07/13 01:44:29;;;;;;;5.97;1.00;;;;;;;24.38;37.81;101258.31;5051920;28;20459;-61
2023/07/13 01:46:54;;;;;;;2.88;0.98;;;;;;;24.39;37.56;101259.16;5053454;28;20466;-61
2023/07/13 01:49:20;;;;;;;5.88;0.80;;;;;;;24.38;37.98;101252.81;5052339;28;20053;-61
2023/07/13 01:51:45;;;;;;;4.13;0.68;;;;;;;24.36;38.02;101252.19;5035785;28;20048;-61
2023/07/13 01:54:10;;;;;;;3.58;0.70;;;;;;;24.35;37.89;101253.25;5053531;28;20573;-61
2023/07/13 01:56:36;;;;;;;2.67;0.52;;;;;;;24.30;37.87;101251.13;5052040;28;20036;-62
2023/07/13 01:59:01;;;;;;;5.30;0.80;;;;;;;24.30;38.53;101251.13;5053273;28;20562;-62
2023/07/13 02:01:27;;;;;;;5.78;0.60;;;;;;;24.27;38.56;101256.19;5052080;28;20052;-61
2023/07/13 02:03:52;;;;;;;5.38;1.35;;;;;;;24.25;38.77;101256.41;5052067;28;20475;-62
2023/07/13 02:06:18;;;;;;;4.18;0.65;;;;;;;24.25;38.71;101258.28;5053192;28;20048;-62
2023/07/13 02:08:43;;;;;;;6.07;1.92;;;;;;;24.24;37.74;101259.31;5052082;28;20029;-60
2023/07/13 02:11:08;;;;;;;2.28;0.60;;;;;;;24.21;37.81;101262.47;5053171;28;20086;-63
2023/07/13 02:13:34;;;;;;;3.17;0.93;;;;;;;24.20;38.25;101252.59;5051929;28;20056;-63
2023/07/13 02:16:00;;;;;;;9.55;1.08;;;;;;;24.16;38.93;101256.78;5051978;28;20033;-61
2023/07/13 02:18:25;;;;;;;5.10;1.42;;;;;;;24.12;39.03;101261.00;5036050;28;20424;-63
2023/07/13 02:20:51;;;;;;;2.78;0.50;;;;;;;24.10;38.40;101257.63;5052643;28;20501;-61
2023/07/13 02:23:16;;;;;;;4.60;1.00;;;;;;;24.07;38.95;101264.31;5026731;28;20056;-61
2023/07/13 02:25:41;;;;;;;2.60;0.60;;;;;;;24.03;38.82;101264.94;5036071;28;20033;-61
2023/07/13 02:28:07;;;;;;;3.85;0.90;;;;;;;24.03;38.45;101264.94;5018723;28;20037;-62
2023/07/13 02:30:34;;;;;;;2.83;0.80;;;;;;;24.00;39.14;101270.84;5051548;28;20427;-62
2023/07/13 02:33:00;;;;;;;2.05;0.77;;;;;;;23.94;38.65;101266.19;5051677;28;20400;-61
2023/07/13 02:35:26;;;;;;;6.00;1.13;;;;;;;23.92;38.71;101262.81;5018651;28;20037;-61
2023/07/13 02:37:51;;;;;;;2.70;1.02;;;;;;;23.89;38.99;101277.75;5052944;28;20033;-62
2023/07/13 02:40:17;;;;;;;4.35;1.35;;;;;;;23.85;39.24;101267.41;5018443;28;20374;-61
2023/07/13 02:42:42;;;;;;;4.40;0.85;;;;;;;23.84;39.17;101276.69;5052857;28;20630;-61
2023/07/13 02:45:09;;;;;;;7.18;1.00;;;;;;;23.80;39.51;101270.75;5051399;28;20116;-61
2023/07/13 02:47:35;;;;;;;5.07;0.73;;;;;;;23.74;39.55;101266.94;5024261;28;20045;-61
2023/07/13 02:50:00;;;;;;;7.47;1.23;;;;;;;23.66;38.79;101269.00;5038098;28;20094;-61
2023/07/13 02:52:27;;;;;;;2.30;0.73;;;;;;;23.66;38.90;101269.00;5055195;28;20033;-61
2023/07/13 02:54:52;;;;;;;1.75;0.60;;;;;;;23.61;39.33;101277.84;5037929;28;20092;-61
2023/07/13 02:57:17;;;;;;;2.70;0.90;;;;;;;23.57;38.84;101270.22;5040249;28;20056;-61
2023/07/13 02:59:43;;;;;;;2.35;0.77;;;;;;;23.55;38.94;101267.72;5060125;28;20037;-61
2023/07/13 03:02:09;;;;;;;3.35;0.60;;;;;;;23.52;39.70;101268.13;5060468;28;20029;-61
2023/07/13 03:04:36;;;;;;;5.07;0.85;;;;;;;23.50;39.68;101270.22;5057337;28;20033;-62
2023/07/13 03:07:02;;;;;;;3.80;0.90;;;;;;;23.51;39.80;101277.34;5056982;28;20493;-62
2023/07/13 03:09:28;;;;;;;1.35;0.95;;;;;;;23.51;39.21;101281.97;5055648;28;20114;-61
2023/07/13 03:11:55;;;;;;;3.25;0.85;;;;;;;23.47;39.54;101281.56;5056927;28;20068;-61
2023/07/13 03:14:22;;;;;;;3.10;0.80;;;;;;;23.45;40.47;101278.16;5056074;28;20534;-62
2023/07/13 03:16:47;;;;;;;1.13;0.63;;;;;;;23.44;39.91;101281.97;5055598;28;20131;-62
2023/07/13 03:19:12;;;;;;;6.05;0.90;;;;;;;23.45;40.62;101278.16;5056311;28;20041;-62
2023/07/13 03:21:38;;;;;;;4.35;1.00;;;;;;;23.48;40.04;101283.22;5056391;28;20496;-62
2023/07/13 03:24:04;;;;;;;1.33;0.60;;;;;;;23.49;40.22;101287.66;5055134;28;20035;-62
2023/07/13 03:26:29;;;;;;;3.15;1.25;;;;;;;23.48;40.06;101291.44;5055031;28;20047;-61
2023/07/13 03:28:54;;;;;;;2.92;0.73;;;;;;;23.51;40.60;101296.50;5054928;28;20036;-62
2023/07/13 03:31:25;;;;;;;1.17;0.88;;;;;;;23.49;40.13;101289.53;5022385;28;20430;-62
2023/07/13 03:33:51;;;;;;;3.97;0.70;;;;;;;23.49;40.57;101295.88;5055258;28;20094;-61
2023/07/13 03:36:24;;;;;;;4.25;0.80;;;;;;;23.52;40.87;101305.56;5038106;28;20472;-61
2023/07/13 03:38:52;;;;;;;5.47;1.00;;;;;;;23.54;39.87;101297.97;5055257;28;20028;-61
2023/07/13 03:41:18;;;;;;;2.30;0.77;;;;;;;23.54;39.99;101304.31;5055040;28;20080;-61
2023/07/13 03:43:44;;;;;;;3.45;0.80;;;;;;;23.55;40.84;101314.22;5056180;28;20092;-62
2023/07/13 03:46:09;;;;;;;3.55;1.20;;;;;;;23.55;40.79;101313.34;5038155;28;20037;-62
2023/07/13 03:48:36;;;;;;;8.38;1.00;;;;;;;23.56;40.56;101310.41;5055808;28;20566;-62
2023/07/13 03:51:02;;;;;;;6.57;1.00;;;;;;;23.58;40.36;101315.69;5038036;28;20032;-61
2023/07/13 03:53:27;;;;;;;6.75;0.90;;;;;;;23.56;40.55;101313.13;5054806;28;20025;-62
2023/07/13 03:55:53;;;;;;;4.45;0.88;;;;;;;23.57;41.01;101306.63;5055854;28;20432;-62
2023/07/13 03:58:31;;;;;;;6.40;1.10;;;;;;;23.58;40.79;101307.47;5055766;28;20029;-62
2023/07/13 04:00:57;;;;;;;4.07;1.17;;;;;;;23.58;40.16;101311.06;5037856;28;20083;-62
2023/07/13 04:03:23;;;;;;;6.75;1.08;;;;;;;23.59;40.34;101320.94;5055849;28;20450;-61
2023/07/13 04:05:48;;;;;;;3.30;0.68;;;;;;;23.60;41.00;101319.91;5054517;28;20032;-62
2023/07/13 04:08:14;;;;;;;6.07;1.00;;;;;;;23.60;41.25;101317.19;5054671;28;20037;-61
2023/07/13 04:10:39;;;;;;;5.60;1.33;;;;;;;23.63;41.36;101316.78;5056249;28;20079;-61
2023/07/13 04:13:05;;;;;;;2.35;1.38;;;;;;;23.66;41.19;101318.25;5022079;28;20032;-62
2023/07/13 04:15:32;;;;;;;2.47;0.60;;;;;;;23.68;40.88;101319.75;5054529;28;20041;-62
2023/07/13 04:17:57;;;;;;;8.02;1.25;;;;;;;23.70;40.49;101323.09;5037449;28;20116;-61
2023/07/13 04:20:25;;;;;;;4.00;1.15;;;;;;;23.70;41.14;101317.63;5037525;28;20116;-61
2023/07/13 04:22:50;;;;;;;5.05;1.50;;;;;;;23.74;40.55;101324.41;5054138;28;20106;-61
2023/07/13 04:25:16;;;;;;;2.72;0.98;;;;;;;23.77;40.63;101320.41;5054319;28;20130;-61
2023/07/13 04:27:41;;;;;;;7.63;1.23;;;;;;;23.80;41.07;101319.16;5020834;28;20025;-61
2023/07/13 04:30:07;;;;;;;4.13;1.83;;;;;;;23.86;40.62;101321.09;5037091;28;20067;-61
2023/07/13 04:32:32;;;;;;;6.22;1.55;;;;;;;23.90;41.50;101331.41;5053974;28;20186;-61
2023/07/13 04:34:59;;;;;;;6.38;1.33;;;;;;;23.97;41.19;101331.47;5055062;28;20560;-61
2023/07/13 04:37:27;;;;;;;3.60;1.77;;;;;;;24.01;40.92;101330.00;5037727;28;20106;-61
2023/07/13 04:39:52;;;;;;;8.57;1.65;;;;;;;24.03;40.50;101336.13;5053736;28;20030;-62
2023/07/13 04:42:18;;;;;;;13.77;3.15;;;;;;;24.05;41.25;101334.00;5036970;28;20515;-61
2023/07/13 04:44:51;;;;;;;5.07;1.20;;;;;;;24.11;40.88;101331.34;5053696;28;20033;-61
2023/07/13 04:47:16;;;;;;;;;;;;;;;24.16;41.22;101326.09;5027798;28;20124;-62
2023/07/13 04:49:42;;;;;;;10.00;1.52;;;;;;;24.23;40.80;101340.63;5054100;28;20011;-61
2023/07/13 04:52:07;;;;;;;7.10;1.33;;;;;;;24.30;40.87;101337.91;5036985;28;20087;-62
2023/07/13 04:54:33;;;;;;;7.20;1.65;;;;;;;24.42;40.87;101340.91;5054554;28;20493;-61
2023/07/13 04:56:59;;;;;;;7.78;1.50;;;;;;;24.42;40.83;101325.31;5036831;28;20040;-61
2023/07/13 04:59:24;;;;;;;9.93;1.67;;;;;;;24.53;40.53;101327.44;5054825;28;20041;-62
2023/07/13 05:01:50;;;;;;;4.75;1.38;;;;;;;24.56;41.34;101338.00;5053293;28;20515;-61
2023/07/13 05:04:15;;;;;;;10.82;2.35;;;;;;;24.62;40.26;101336.31;5054967;28;20037;-62
2023/07/13 05:06:40;;;;;;;7.35;1.20;;;;;;;24.67;40.17;101342.88;5053569;28;20036;-61
2023/07/13 05:09:07;;;;;;;5.05;1.10;;;;;;;24.74;41.04;101346.44;5054474;28;20033;-61
2023/07/13 05:11:32;;;;;;;2.95;0.93;;;;;;;24.84;40.66;101352.41;5053125;28;20447;-62
2023/07/13 05:13:58;;;;;;;6.55;1.50;;;;;;;24.92;40.26;101354.09;5053253;28;20025;-61
2023/07/13 05:16:23;;;;;;;4.38;1.23;;;;;;;25.03;40.51;101356.19;5036547;28;20087;-61
2023/07/13 05:18:50;;;;;;;9.80;1.52;;;;;;;25.15;40.28;101356.41;5020455;28;20500;-62
2023/07/13 05:21:15;;;;;;;4.72;1.15;;;;;;;25.26;40.55;101355.78;5053621;28;20037;-61
2023/07/13 05:23:44;;;;;;;3.35;1.58;;;;;;;25.26;40.50;101367.59;5054629;28;20040;-61
2023/07/13 05:26:10;;;;;;;10.65;1.50;;;;;;;25.31;40.44;101355.97;5050728;28;20037;-61
2023/07/13 05:28:36;;;;;;;5.30;1.30;;;;;;;25.33;40.61;101362.09;5045691;28;20051;-60
2023/07/13 05:31:01;;;;;;;3.47;1.20;;;;;;;25.34;40.36;101358.28;5036248;28;20033;-61
2023/07/13 05:33:27;;;;;;;4.90;1.15;;;;;;;25.36;40.44;101364.41;5052888;28;20059;-61
2023/07/13 05:35:53;;;;;;;2.78;1.30;;;;;;;25.35;40.64;101362.69;5052243;28;20044;-61
2023/07/13 05:38:18;;;;;;;5.45;0.90;;;;;;;25.35;40.25;101370.94;5053034;28;20041;-61
2023/07/13 05:40:44;;;;;;;4.57;1.42;;;;;;;25.32;40.85;101372.19;5036829;28;20510;-61
2023/07/13 05:43:10;;;;;;;7.20;1.48;;;;;;;25.31;40.77;101375.19;5053091;28;20436;-61
2023/07/13 05:45:35;;;;;;;6.32;1.33;;;;;;;25.31;40.40;101375.19;5054062;28;20039;-61
2023/07/13 05:48:01;;;;;;;3.72;0.85;;;;;;;25.30;40.75;101379.81;5020295;28;20570;-61
2023/07/13 05:50:27;;;;;;;13.82;2.00;;;;;;;25.28;40.89;101384.66;5053119;28;20473;-61
2023/07/13 05:52:53;;;;;;;4.70;1.10;;;;;;;25.27;40.64;101380.22;5055020;28;20029;-62
2023/07/13 05:55:19;;;;;;;3.33;1.00;;;;;;;25.31;40.72;101388.88;5052626;28;20428;-61
2023/07/13 05:57:44;;;;;;;12.25;1.67;;;;;;;25.36;41.10;101391.84;5020326;28;20033;-61
2023/07/13 06:00:11;;;;;;;3.35;0.68;;;;;;;25.41;40.67;101397.53;5053056;28;20102;-62
2023/07/13 06:02:36;;;;;;;6.22;1.58;;;;;;;25.44;40.67;101383.38;5052604;28;20035;-61
2023/07/13 06:05:01;;;;;;;6.10;1.27;;;;;;;25.53;40.42;101395.00;5052593;28;20025;-61
2023/07/13 06:07:27;;;;;;;4.55;1.83;;;;;;;25.61;40.59;101397.53;5052644;28;20492;-62
2023/07/13 06:09:52;;;;;;;3.55;1.00;;;;;;;25.65;40.33;101393.31;5035491;28;20496;-61
2023/07/13 06:12:18;;;;;;;6.85;1.35;;;;;;;25.63;40.68;101390.78;5052034;28;20033;-61
2023/07/13 06:14:43;;;;;;;7.78;1.33;;;;;;;25.66;40.60;101400.47;5035333;28;20468;-62
2023/07/13 06:17:09;;;;;;;8.48;1.73;;;;;;;25.70;40.58;101407.25;5053153;28;20035;-61
2023/07/13 06:19:34;;;;;;;6.80;1.27;;;;;;;25.70;40.84;101402.59;5053206;28;20029;-62
2023/07/13 06:22:00;;;;;;;6.55;1.40;;;;;;;25.71;40.94;101412.50;5053422;28;20056;-62
2023/07/13 06:24:25;;;;;;;13.25;1.83;;;;;;;25.71;40.55;101398.78;5035096;28;20116;-62
2023/07/13 06:26:51;;;;;;;6.78;1.23;;;;;;;25.78;40.85;101410.59;5035063;28;20043;-61
2023/07/13 06:29:16;;;;;;;8.48;1.30;;;;;;;25.78;40.78;101407.84;5052582;28;20462;-62
2023/07/13 06:31:42;;;;;;;12.13;2.03;;;;;;;25.78;41.12;101410.59;5050939;28;20049;-62
2023/07/13 06:34:07;;;;;;;11.88;2.33;;;;;;;25.80;40.89;101419.47;5018385;28;20063;-61
2023/07/13 06:36:32;;;;;;;8.00;1.33;;;;;;;25.82;40.69;101428.34;5035028;28;20557;-61
2023/07/13 06:38:58;;;;;;;8.57;1.40;;;;;;;25.83;41.05;101421.78;5051415;28;20028;-61
2023/07/13 06:41:25;;;;;;;12.10;2.00;;;;;;;25.84;40.86;101423.47;5034600;28;20037;-61
2023/07/13 06:43:51;;;;;;;8.88;1.88;;;;;;;25.83;40.86;101432.75;5052765;28;20029;-61
2023/07/13 06:46:17;;;;;;;6.10;2.38;;;;;;;25.81;41.03;101423.91;5051304;28;20473;-61
2023/07/13 06:48:42;;;;;;;10.02;1.73;;;;;;;25.79;41.05;101434.25;5051406;28;20504;-61
2023/07/13 06:51:08;;;;;;;4.88;1.50;;;;;;;25.79;40.86;101437.00;5052532;28;20036;-62
2023/07/13 06:53:33;;;;;;;8.77;1.75;;;;;;;25.75;40.44;101426.66;5034704;28;20126;-61
2023/07/13 06:55:59;;;;;;;4.97;1.60;;;;;;;25.77;40.79;101430.88;5051252;28;20033;-61
2023/07/13 06:58:24;;;;;;;13.00;2.05;;;;;;;25.81;40.88;101436.78;5052759;28;20041;-62
2023/07/13 07:00:51;;;;;;;6.53;1.48;;;;;;;25.83;41.10;101435.50;5018406;28;20519;-62
2023/07/13 07:03:17;;;;;;;9.00;2.42;;;;;;;25.87;40.93;101435.94;5052457;28;20048;-61
2023/07/13 07:05:42;;;;;;;11.32;1.83;;;;;;;25.89;40.96;101434.66;5051198;28;20029;-61
2023/07/13 07:08:08;;;;;;;7.38;1.90;;;;;;;25.92;40.87;101436.97;5051579;28;20489;-62
2023/07/13 07:10:34;;;;;;;11.90;1.75;;;;;;;25.93;40.86;101440.56;5051530;28;20033;-61
2023/07/13 07:12:59;;;;;;;14.30;2.00;;;;;;;25.96;40.69;101438.22;5051124;28;20029;-61
2023/07/13 07:15:25;;;;;;;9.68;1.27;;;;;;;26.04;41.06;101438.00;5034469;28;20036;-63
2023/07/13 07:17:50;;;;;;;10.32;1.88;;;;;;;26.04;41.04;101443.50;5051058;28;20041;-63
2023/07/13 07:20:16;;;;;;;5.63;2.60;;;;;;;26.02;40.87;101440.09;5052327;28;20599;-63
2023/07/13 07:22:41;;;;;;;5.85;1.35;;;;;;;26.07;41.30;101446.88;5052201;28;20040;-62
2023/07/13 07:25:07;;;;;;;9.52;2.13;;;;;;;26.13;41.18;101451.50;5050988;28;20110;-63
2023/07/13 07:27:33;;;;;;;11.80;1.70;;;;;;;26.20;41.17;101452.34;5034405;28;20044;-62
2023/07/13 07:29:59;;;;;;;6.35;1.60;;;;;;;26.22;41.02;101448.31;5034076;28;20056;-61
2023/07/13 07:32:24;;;;;;;8.55;2.13;;;;;;;26.26;41.13;101459.72;5051066;28;20087;-62
2023/07/13 07:34:49;;;;;;;7.95;1.45;;;;;;;26.25;41.12;101455.28;5051033;28;20119;-61
2023/07/13 07:37:15;;;;;;;7.97;1.85;;;;;;;26.27;41.23;101458.66;5034467;28;20407;-61
2023/07/13 07:39:42;;;;;;;7.22;1.55;;;;;;;26.30;41.00;101461.81;5050999;28;20025;-61
2023/07/13 07:42:07;;;;;;;7.90;2.47;;;;;;;26.32;40.83;101459.72;5051500;28;20412;-61
2023/07/13 07:44:33;;;;;;;10.98;2.55;;;;;;;26.31;41.37;101459.91;5037840;28;20033;-61
2023/07/13 07:46:59;;;;;;;8.27;2.05;;;;;;;26.31;41.40;101459.91;5054797;28;20131;-61
2023/07/13 07:49:24;;;;;;;8.70;1.88;;;;;;;26.30;40.87;101458.25;5054479;28;20104;-62
2023/07/13 07:51:50;;;;;;;8.65;2.03;;;;;;;26.34;41.33;101460.31;5038061;28;20041;-62
2023/07/13 07:54:16;;;;;;;9.50;2.03;;;;;;;26.40;40.92;101464.09;5038139;28;20526;-62
2023/07/13 07:56:41;;;;;;;7.85;1.77;;;;;;;26.46;40.80;101468.75;5054745;28;20074;-61
2023/07/13 07:59:07;;;;;;;6.43;1.60;;;;;;;26.48;40.94;101466.59;5054285;28;20029;-61
2023/07/13 08:01:32;;;;;;;4.78;1.48;;;;;;;26.57;41.12;101470.81;5055632;28;20075;-61
2023/07/13 08:03:57;;;;;;;8.40;1.92;;;;;;;26.63;40.66;101463.59;5037637;28;20500;-61
2023/07/13 08:06:23;;;;;;;6.40;2.58;;;;;;;26.70;40.66;101464.38;5037690;28;20049;-61
2023/07/13 08:08:48;;;;;;;4.93;1.95;;;;;;;26.78;40.88;101459.50;5055360;28;20037;-61
2023/07/13 08:11:14;;;;;;;8.05;1.60;;;;;;;26.85;40.75;101463.09;5055554;28;20496;-61
2023/07/13 08:13:40;;;;;;;9.68;1.42;;;;;;;26.92;40.69;101469.38;5054208;28;20078;-61
2023/07/13 08:16:06;;;;;;;4.53;2.05;;;;;;;27.00;40.40;101468.25;5055414;28;20400;-61
2023/07/13 08:18:32;;;;;;;3.90;1.98;;;;;;;27.12;40.95;101461.84;5055396;28;20032;-60
2023/07/13 08:20:58;;;;;;;3.78;1.20;;;;;;;27.26;40.08;101454.34;5054113;28;20033;-62
2023/07/13 08:23:24;;;;;;;8.52;2.85;;;;;;;27.34;40.05;101455.97;5037641;28;20041;-61
2023/07/13 08:25:53;;;;;;;8.60;1.42;;;;;;;27.51;39.68;101455.22;5054653;28;20059;-61
2023/07/13 08:28:22;;;;;;;3.92;1.35;;;;;;;27.61;39.68;101458.28;5055297;28;20037;-61
2023/07/13 08:30:51;;;;;;;5.68;1.50;;;;;;;27.65;40.20;101456.78;5056319;28;20045;-61
2023/07/13 08:33:18;;;;;;;8.43;1.25;;;;;;;27.76;40.07;101446.94;5056320;28;20492;-63
2023/07/13 08:35:46;;;;;;;9.18;1.48;;;;;;;27.97;39.40;101452.03;5054540;28;20043;-62
2023/07/13 08:38:12;;;;;;;4.53;1.30;;;;;;;28.10;39.28;101443.63;5054226;28;20112;-62
2023/07/13 08:40:38;;;;;;;5.43;1.60;;;;;;;28.41;38.56;101453.66;5053839;28;20063;-62
2023/07/13 08:43:04;;;;;;;4.32;1.63;;;;;;;28.68;38.58;101451.41;5053586;28;20052;-62
2023/07/13 08:45:44;;;;;;;5.85;2.15;;;;;;;28.90;38.75;101449.84;5054614;28;20021;-62
2023/07/13 08:48:27;;;;;;;10.07;1.98;;;;;;;29.18;38.18;101452.78;5035938;28;20502;-62
2023/07/13 08:51:04;;;;;;;5.75;1.77;;;;;;;29.50;38.13;101447.00;5053526;28;20100;-62
2023/07/13 08:53:35;;;;;;;2.75;1.23;;;;;;;29.68;37.19;101450.50;5053907;28;20040;-62
2023/07/13 08:56:02;;;;;;;10.13;2.22;;;;;;;29.73;37.35;101452.56;5037618;28;20025;-62
2023/07/13 08:58:28;;;;;;;4.28;1.73;;;;;;;29.94;37.18;101451.97;5036803;28;20037;-62
2023/07/13 09:01:19;;;;;;;7.15;1.92;;;;;;;30.18;37.14;101447.25;5053226;28;20044;-62
2023/07/13 09:04:08;;;;;;;4.85;1.30;;;;;;;30.39;36.90;101457.69;5053162;28;20033;-62
2023/07/13 09:06:54;;;;;;;5.80;1.63;;;;;;;30.39;36.93;101441.94;5036447;28;20033;-62
2023/07/13 09:09:55;;;;;;;5.68;1.45;;;;;;;31.01;36.13;101440.16;5054419;28;20511;-63
2023/07/13 09:12:20;;;;;;;5.35;1.30;;;;;;;31.73;35.40;101443.06;5054113;28;20044;-62
2023/07/13 09:14:50;;;;;;;5.85;1.20;;;;;;;32.12;34.87;101435.59;5054127;28;20082;-62
2023/07/13 09:17:26;;;;;;;6.43;1.23;;;;;;;32.38;34.37;101434.84;5053111;28;20507;-63
2023/07/13 09:20:10;;;;;;;3.15;1.50;;;;;;;32.52;34.09;101418.66;5052808;28;20112;-62
2023/07/13 09:22:37;;;;;;;4.68;1.40;;;;;;;32.79;34.62;101439.81;5036426;28;20037;-62
2023/07/13 09:25:21;;;;;;;2.88;1.08;;;;;;;32.96;33.95;101436.06;5036281;28;20399;-62
2023/07/13 09:27:47;;;;;;;4.65;1.20;;;;;;;32.78;34.28;101440.88;5052896;28;20040;-62
2023/07/13 09:30:34;;;;;;;5.55;2.92;;;;;;;32.57;34.59;101447.31;5052518;28;20091;-62
2023/07/13 09:33:00;;;;;;;9.18;1.83;;;;;;;32.59;33.35;101441.50;5054339;28;20048;-62
2023/07/13 09:35:27;;;;;;;4.85;1.25;;;;;;;32.36;33.80;101438.97;5052813;28;20033;-62
2023/07/13 09:37:58;;;;;;;5.05;1.58;;;;;;;32.28;34.21;101443.03;5052564;28;20032;-62
2023/07/13 09:40:44;;;;;;;8.23;1.55;;;;;;;32.17;33.95;101449.53;5052672;28;20120;-62
2023/07/13 09:43:13;;;;;;;4.82;1.33;;;;;;;32.06;33.78;101436.63;5032318;28;20037;-62
2023/07/13 09:45:39;;;;;;;5.38;1.42;;;;;;;32.15;34.59;101440.66;5052579;28;20033;-62
2023/07/13 09:48:13;;;;;;;1.63;1.08;;;;;;;32.09;33.63;101431.41;5052564;28;20036;-62
2023/07/13 09:50:39;;;;;;;5.72;1.40;;;;;;;32.09;34.32;101438.91;5053594;28;20037;-62
2023/07/13 09:53:15;;;;;;;4.15;1.25;;;;;;;32.31;34.26;101444.44;5052357;28;20029;-62
2023/07/13 09:55:41;;;;;;;2.88;0.80;;;;;;;33.09;32.90;101442.06;5051947;28;20579;-62
2023/07/13 09:58:16;;;;;;;3.30;1.15;;;;;;;32.75;32.70;101452.50;5052062;28;20074;-62
2023/07/13 10:00:43;;;;;;;5.00;0.80;;;;;;;32.63;34.02;101437.97;5035708;28;20095;-62
2023/07/13 10:03:24;;;;;;;4.20;1.20;;;;;;;32.80;33.42;101443.41;5052266;28;20614;-62
2023/07/13 10:05:50;;;;;;;5.65;1.08;;;;;;;32.63;32.51;101443.50;5045747;28;20063;-62
2023/07/13 10:08:24;;;;;;;5.60;1.20;;;;;;;32.35;33.36;101448.41;5052185;28;20043;-62
2023/07/13 10:11:33;;;;;;;4.78;0.95;;;;;;;32.03;33.04;101456.53;5052094;28;20111;-62
2023/07/13 10:14:08;;;;;;;6.60;0.93;;;;;;;31.79;33.56;101455.06;5036132;28;20037;-63
2023/07/13 10:16:34;;;;;;;2.28;0.80;;;;;;;31.95;33.70;101457.81;5051940;28;20036;-63
2023/07/13 10:19:26;;;;;;;4.72;1.02;;;;;;;32.04;32.98;101456.31;5052279;28;20083;-62
2023/07/13 10:22:20;;;;;;;4.43;0.70;;;;;;;32.23;32.88;101454.06;5051835;28;20041;-62
2023/07/13 10:24:46;;;;;;;4.85;1.23;;;;;;;31.95;33.60;101462.50;5052721;28;20033;-62
2023/07/13 10:27:20;;;;;;;5.13;1.08;;;;;;;31.76;33.63;101461.94;5051597;28;20045;-62
2023/07/13 10:30:00;;;;;;;5.78;1.50;;;;;;;31.55;33.24;101460.78;5051363;28;20492;-63
2023/07/13 10:32:25;;;;;;;6.60;1.15;;;;;;;31.50;33.44;101460.69;5051686;28;20045;-62
2023/07/13 10:34:52;;;;;;;3.80;1.10;;;;;;;32.47;32.07;101466.56;5034993;28;20031;-63
2023/07/13 10:37:24;;;;;;;4.13;1.48;;;;;;;33.36;31.32;101464.28;5053151;28;20454;-63
2023/07/13 10:39:51;;;;;;;7.43;1.83;;;;;;;34.06;30.71;101457.59;5035038;28;20087;-62
2023/07/13 10:42:41;;;;;;;3.70;1.80;;;;;;;34.73;30.60;101460.44;5051614;28;20029;-63
2023/07/13 10:45:21;;;;;;;3.78;2.35;;;;;;;35.27;30.23;101463.63;5052627;28;20111;-63
2023/07/13 10:47:47;;;;;;;6.38;2.13;;;;;;;35.82;29.93;101449.69;5051322;28;20400;-64
2023/07/13 10:50:20;;;;;;;4.20;2.55;;;;;;;36.12;29.25;101449.66;5034874;28;20037;-63
2023/07/13 10:52:50;;;;;;;4.55;3.20;;;;;;;36.66;28.97;101451.66;5034594;28;20049;-63
2023/07/13 10:56:05;;;;;;;4.10;1.88;;;;;;;37.17;28.08;101439.06;5051407;28;20029;-63
2023/07/13 10:58:37;;;;;;;5.28;2.22;;;;;;;37.20;28.00;101448.84;5030135;28;20179;-63
2023/07/13 11:01:05;;;;;;;4.43;2.55;;;;;;;37.55;27.86;101444.94;5030483;28;20029;-62
2023/07/13 11:03:51;;;;;;;3.25;1.50;;;;;;;37.80;27.54;101439.09;5013861;28;20555;-62
2023/07/13 11:06:39;;;;;;;4.38;1.20;;;;;;;37.98;27.42;101438.34;5023398;28;20045;-64
2023/07/13 11:09:34;;;;;;;1.45;0.60;;;;;;;37.31;28.17;101445.66;5014166;28;20042;-62
2023/07/13 11:12:01;;;;;;;4.18;1.08;;;;;;;37.26;27.40;101442.91;5014605;28;20037;-62
2023/07/13 11:14:38;;;;;;;5.13;1.67;;;;;;;37.65;26.63;101433.66;5013489;28;20087;-63
2023/07/13 11:17:37;;;;;;;4.85;0.88;;;;;;;37.88;26.40;101444.91;5030884;28;20038;-61
2023/07/13 11:20:11;;;;;;;3.42;0.73;;;;;;;38.28;26.10;101446.38;5017743;28;20674;-63
2023/07/13 11:22:50;;;;;;;3.15;0.90;;;;;;;38.56;25.27;101438.25;5033931;28;20057;-63
2023/07/13 11:25:26;;;;;;;2.15;0.93;;;;;;;38.78;25.33;101441.31;5034456;28;20029;-62
2023/07/13 11:28:05;;;;;;;4.10;0.98;;;;;;;38.83;25.90;101444.03;5017209;28;20558;-63
2023/07/13 11:30:36;;;;;;;2.05;0.60;;;;;;;38.67;26.19;101445.38;5054684;28;20183;-63